createdAt,value
2023-04-18T00:01:28.975Z,13.06
2023-04-18T00:04:34.228Z,12.98
2023-04-18T00:07:36.888Z,12.87
2023-04-18T00:10:39.298Z,12.91
2023-04-18T00:13:41.931Z,12.94
2023-04-18T00:16:44.483Z,13.03
2023-04-18T00:19:47.216Z,13.02
2023-04-18T00:22:49.894Z,12.96
2023-04-18T00:25:52.450Z,13.00
2023-04-18T00:28:55.356Z,12.93
2023-04-18T00:31:58.101Z,12.96
2023-04-18T00:35:00.638Z,12.87
2023-04-18T00:38:03.286Z,12.83
2023-04-18T00:41:05.759Z,12.77
2023-04-18T00:44:08.447Z,12.78
2023-04-18T00:47:11.110Z,12.87
2023-04-18T00:50:13.553Z,12.81
2023-04-18T00:53:17.035Z,12.84
2023-04-18T00:56:20.448Z,12.78
2023-04-18T00:59:23.005Z,12.71
2023-04-18T01:02:26.435Z,12.71
2023-04-18T01:05:29.086Z,12.80
2023-04-18T01:08:32.988Z,12.75
2023-04-18T01:11:36.360Z,12.74
2023-04-18T01:14:42.851Z,12.75
2023-04-18T01:17:45.688Z,12.75
2023-04-18T01:20:52.087Z,12.74
2023-04-18T01:23:56.074Z,12.75
2023-04-18T01:26:58.888Z,12.71
2023-04-18T01:30:02.384Z,12.65
2023-04-18T01:33:05.965Z,12.69
2023-04-18T01:36:08.750Z,12.70
2023-04-18T01:39:11.249Z,12.66
2023-04-18T01:42:13.736Z,12.67
2023-04-18T01:45:16.624Z,12.58
2023-04-18T01:48:19.252Z,12.56
2023-04-18T01:51:21.784Z,12.58
2023-04-18T01:54:24.334Z,12.55
2023-04-18T01:57:28.969Z,12.45
2023-04-18T02:00:31.494Z,12.49
2023-04-18T02:03:34.179Z,12.53
2023-04-18T02:06:37.039Z,12.54
2023-04-18T02:09:39.636Z,12.59
2023-04-18T02:12:42.171Z,12.62
2023-04-18T02:15:46.170Z,12.69
2023-04-18T02:18:52.959Z,12.68
2023-04-18T02:21:55.613Z,12.65
2023-04-18T02:24:58.089Z,12.59
2023-04-18T02:28:03.337Z,12.54
2023-04-18T02:31:07.444Z,12.60
2023-04-18T02:34:10.919Z,12.69
2023-04-18T02:37:13.403Z,12.71
2023-04-18T02:40:16.089Z,12.67
2023-04-18T02:43:18.576Z,12.56
2023-04-18T02:46:21.404Z,12.58
2023-04-18T02:49:24.912Z,12.52
2023-04-18T02:52:28.256Z,12.53
2023-04-18T02:55:30.709Z,12.53
2023-04-18T02:58:36.473Z,12.47
2023-04-18T03:02:06.535Z,12.49
2023-04-18T03:05:10.746Z,12.43
2023-04-18T03:08:14.345Z,12.38
2023-04-18T03:11:17.427Z,12.43
2023-04-18T03:14:20.632Z,12.42
2023-04-18T03:17:29.633Z,12.39
2023-04-18T03:20:33.281Z,12.32
2023-04-18T03:23:35.950Z,12.35
2023-04-18T03:26:40.312Z,12.32
2023-04-18T03:29:43.674Z,12.34
2023-04-18T03:32:49.163Z,12.26
2023-04-18T03:35:51.783Z,12.23
2023-04-18T03:38:55.010Z,12.17
2023-04-18T03:41:57.695Z,12.15
2023-04-18T03:45:00.364Z,12.04
2023-04-18T03:48:03.645Z,12.05
2023-04-18T03:51:10.901Z,12.11
2023-04-18T03:54:15.803Z,12.15
2023-04-18T03:57:18.526Z,12.19
2023-04-18T04:00:21.315Z,12.17
2023-04-18T04:03:34.338Z,12.19
2023-04-18T04:06:37.313Z,12.10
2023-04-18T04:09:39.953Z,12.17
2023-04-18T04:12:42.617Z,12.20
2023-04-18T04:15:45.731Z,12.31
2023-04-18T04:18:48.561Z,12.40
2023-04-18T04:21:51.449Z,12.37
2023-04-18T04:24:57.878Z,12.24
2023-04-18T04:28:08.387Z,12.12
2023-04-18T04:31:22.413Z,12.21
2023-04-18T04:34:26.009Z,12.17
2023-04-18T04:37:28.570Z,12.09
2023-04-18T04:40:43.540Z,12.06
2023-04-18T04:43:48.382Z,12.06
2023-04-18T04:46:54.597Z,11.94
2023-04-18T04:50:01.396Z,12.02
2023-04-18T04:53:04.669Z,11.97
2023-04-18T04:56:07.425Z,12.06
2023-04-18T04:59:10.249Z,12.05
2023-04-18T05:02:16.884Z,12.11
2023-04-18T05:05:19.820Z,12.13
2023-04-18T05:08:22.514Z,12.10
2023-04-18T05:11:25.117Z,12.20
2023-04-18T05:14:27.856Z,12.11
2023-04-18T05:17:30.552Z,12.14
2023-04-18T05:20:33.202Z,12.06
2023-04-18T05:23:37.334Z,12.16
2023-04-18T05:26:40.335Z,12.26
2023-04-18T05:29:43.320Z,12.38
2023-04-18T05:32:45.957Z,12.48
2023-04-18T05:35:48.835Z,12.62
2023-04-18T05:38:51.769Z,12.75
2023-04-18T05:41:54.311Z,12.79
2023-04-18T05:44:57.046Z,12.82
2023-04-18T05:47:59.784Z,12.93
2023-04-18T05:51:02.440Z,12.96
2023-04-18T05:54:04.995Z,13.06
2023-04-18T05:57:07.565Z,13.06
2023-04-18T06:00:12.010Z,13.17
2023-04-18T06:03:17.592Z,13.23
2023-04-18T06:06:20.802Z,13.32
2023-04-18T06:09:23.739Z,13.46
2023-04-18T06:12:26.386Z,13.54
2023-04-18T06:15:29.200Z,13.57
2023-04-18T06:18:31.619Z,13.71
2023-04-18T06:21:34.192Z,13.72
2023-04-18T06:24:37.506Z,13.70
2023-04-18T06:27:40.303Z,13.70
2023-04-18T06:30:42.783Z,13.85
2023-04-18T06:33:45.250Z,14.05
2023-04-18T06:36:47.776Z,14.14
2023-04-18T06:39:50.436Z,14.24
2023-04-18T06:42:53.134Z,14.52
2023-04-18T06:45:56.902Z,14.66
2023-04-18T06:48:59.833Z,14.70
2023-04-18T06:52:02.561Z,14.62
2023-04-18T06:55:05.899Z,14.63
2023-04-18T06:58:10.199Z,14.64
2023-04-18T07:01:12.678Z,14.69
2023-04-18T07:04:15.892Z,14.73
2023-04-18T07:07:18.768Z,14.77
2023-04-18T07:10:21.775Z,14.87
2023-04-18T07:13:24.375Z,14.99
2023-04-18T07:16:26.851Z,15.13
2023-04-18T07:19:29.316Z,15.30
2023-04-18T07:22:31.926Z,15.40
2023-04-18T07:25:34.459Z,15.51
2023-04-18T07:28:37.366Z,15.45
2023-04-18T07:31:40.256Z,15.57
2023-04-18T07:34:44.055Z,15.51
2023-04-18T07:37:46.616Z,15.64
2023-04-18T07:40:56.908Z,15.69
2023-04-18T07:44:00.521Z,15.62
2023-04-18T07:47:03.704Z,15.66
2023-04-18T07:50:06.735Z,15.80
2023-04-18T07:53:09.323Z,15.85
2023-04-18T07:56:15.558Z,16.02
2023-04-18T07:59:18.641Z,16.22
2023-04-18T08:02:22.078Z,16.61
2023-04-18T08:05:25.209Z,17.04
2023-04-18T08:08:28.027Z,17.15
2023-04-18T08:11:30.710Z,17.08
2023-04-18T08:14:33.115Z,16.99
2023-04-18T08:17:36.309Z,16.98
2023-04-18T08:20:38.879Z,17.07
2023-04-18T08:23:41.652Z,17.11
2023-04-18T08:26:44.136Z,17.11
2023-04-18T08:29:46.612Z,17.25
2023-04-18T08:32:49.836Z,17.20
2023-04-18T08:35:53.052Z,17.30
2023-04-18T08:38:56.677Z,17.35
2023-04-18T08:42:00.622Z,17.44
2023-04-18T08:45:05.822Z,17.75
2023-04-18T08:48:13.342Z,18.24
2023-04-18T08:51:15.808Z,19.00
2023-04-18T08:54:19.295Z,19.67
2023-04-18T08:57:23.878Z,19.92
2023-04-18T09:00:27.601Z,19.71
2023-04-18T09:03:42.609Z,19.54
2023-04-18T09:06:55.315Z,19.55
2023-04-18T09:09:57.933Z,20.36
2023-04-18T09:13:03.456Z,20.97
2023-04-18T09:16:06.823Z,21.34
2023-04-18T09:19:14.144Z,21.11
2023-04-18T09:22:17.968Z,20.73
2023-04-18T09:25:53.539Z,20.89
2023-04-18T09:28:56.093Z,21.03
2023-04-18T09:32:02.519Z,21.50
2023-04-18T09:35:05.626Z,21.56
2023-04-18T09:38:08.412Z,21.71
2023-04-18T09:41:11.721Z,22.00
2023-04-18T09:44:17.307Z,22.27
2023-04-18T09:47:23.653Z,23.20
2023-04-18T09:50:26.364Z,23.44
2023-04-18T09:53:29.540Z,22.57
2023-04-18T09:56:32.676Z,22.02
2023-04-18T10:00:08.707Z,22.00
2023-04-18T10:03:12.616Z,22.21
2023-04-18T10:06:16.781Z,22.46
2023-04-18T10:09:19.682Z,22.47
2023-04-18T10:12:22.449Z,22.67
2023-04-18T10:15:26.736Z,22.80
2023-04-18T10:18:29.861Z,22.62
2023-04-18T10:21:32.740Z,22.70
2023-04-18T10:24:48.420Z,22.87
2023-04-18T10:27:58.617Z,23.37
2023-04-18T10:31:06.005Z,23.19
2023-04-18T10:34:08.646Z,22.91
2023-04-18T10:37:13.071Z,22.85
2023-04-18T10:40:15.855Z,22.82
2023-04-18T10:43:18.396Z,22.83
2023-04-18T10:46:31.715Z,22.51
2023-04-18T10:49:39.500Z,22.67
2023-04-18T10:52:42.899Z,22.94
2023-04-18T10:55:45.909Z,22.74
2023-04-18T10:58:54.295Z,22.41
2023-04-18T11:02:20.006Z,22.46
2023-04-18T11:05:25.835Z,22.78
2023-04-18T11:08:28.483Z,23.98
2023-04-18T11:11:31.657Z,25.87
2023-04-18T11:14:45.170Z,24.84
2023-04-18T11:18:09.337Z,24.09
2023-04-18T11:21:12.534Z,23.62
2023-04-18T11:24:25.874Z,23.54
2023-04-18T11:27:30.040Z,23.36
2023-04-18T11:30:39.249Z,23.17
2023-04-18T11:33:42.051Z,23.21
2023-04-18T11:36:44.484Z,23.67
2023-04-18T11:39:47.089Z,26.28
2023-04-18T11:42:49.769Z,24.63
2023-04-18T11:45:56.329Z,24.95
2023-04-18T11:48:58.970Z,25.55
2023-04-18T11:52:04.110Z,27.49
2023-04-18T11:55:24.050Z,27.14
2023-04-18T11:58:36.548Z,25.94
2023-04-18T12:01:39.151Z,24.71
2023-04-18T12:04:57.756Z,23.83
2023-04-18T12:08:10.232Z,26.58
2023-04-18T12:11:12.666Z,25.82
2023-04-18T12:14:24.027Z,26.11
2023-04-18T12:32:52.354Z,26.23
2023-04-18T12:36:08.755Z,27.63
2023-04-18T12:39:12.671Z,27.55
2023-04-18T12:42:47.601Z,26.93
2023-04-18T12:46:30.415Z,30.11
2023-04-18T12:54:58.695Z,31.47
2023-04-18T12:58:22.648Z,30.88
2023-04-18T13:02:43.839Z,30.64
2023-04-18T13:30:48.993Z,30.49
2023-04-18T13:33:51.832Z,30.34
2023-04-18T13:36:54.341Z,30.38
2023-04-18T13:39:57.748Z,30.16
2023-04-18T13:43:02.223Z,30.21
2023-04-18T13:46:05.273Z,30.08
2023-04-18T13:49:07.982Z,30.24
2023-04-18T13:52:10.740Z,28.88
2023-04-18T13:55:13.200Z,29.23
2023-04-18T13:58:16.983Z,28.70
2023-04-18T14:01:22.277Z,27.88
2023-04-18T14:04:25.147Z,27.90
2023-04-18T14:07:28.657Z,27.92
2023-04-18T14:10:34.651Z,26.96
2023-04-18T14:13:37.290Z,26.99
2023-04-18T14:16:40.239Z,27.12
2023-04-18T14:19:43.009Z,27.16
2023-04-18T14:22:53.225Z,27.19
2023-04-18T14:25:56.784Z,26.98
2023-04-18T14:28:59.302Z,27.01
2023-04-18T14:32:02.031Z,27.00
2023-04-18T14:35:08.102Z,27.00
2023-04-18T14:38:12.028Z,27.12
2023-04-18T14:41:14.883Z,26.68
2023-04-18T14:44:17.551Z,26.94
2023-04-18T14:47:20.242Z,27.43
2023-04-18T14:50:24.071Z,27.12
2023-04-18T14:53:27.231Z,27.15
2023-04-18T14:56:33.266Z,25.79
2023-04-18T14:59:36.911Z,25.52
2023-04-18T15:02:42.605Z,25.19
2023-04-18T15:05:50.873Z,25.22
2023-04-18T15:08:53.882Z,25.76
2023-04-18T15:11:58.263Z,25.36
2023-04-18T15:15:01.159Z,25.09
2023-04-18T15:18:04.338Z,25.22
2023-04-18T15:21:06.849Z,24.72
2023-04-18T15:24:09.308Z,24.74
2023-04-18T15:27:11.940Z,24.69
2023-04-18T15:30:14.770Z,24.76
2023-04-18T15:33:19.126Z,24.34
2023-04-18T15:36:21.975Z,23.72
2023-04-18T15:39:24.690Z,23.88
2023-04-18T15:42:28.212Z,24.01
2023-04-18T15:45:31.073Z,23.82
2023-04-18T15:53:16.341Z,23.48
2023-04-18T16:07:12.936Z,22.13
2023-04-18T16:10:15.952Z,21.61
2023-04-18T16:13:58.181Z,21.28
2023-04-18T16:32:12.079Z,19.28
2023-04-18T17:33:36.000Z,17.52
2023-04-18T17:36:41.011Z,17.25
2023-04-18T17:39:46.873Z,17.11
2023-04-18T17:42:50.450Z,16.98
2023-04-18T17:45:58.144Z,16.94
2023-04-18T17:49:00.801Z,16.91
2023-04-18T17:52:03.928Z,16.83
2023-04-18T17:55:07.304Z,16.71
2023-04-18T17:58:10.029Z,16.62
2023-04-18T18:01:16.187Z,16.54
2023-04-18T18:04:19.977Z,16.43
2023-04-18T18:07:22.966Z,16.27
2023-04-18T18:10:25.839Z,16.20
2023-04-18T18:13:29.520Z,16.19
2023-04-18T18:16:32.615Z,16.12
2023-04-18T18:19:37.027Z,15.90
2023-04-18T18:22:41.067Z,15.81
2023-04-18T18:25:44.072Z,15.70
2023-04-18T18:28:47.179Z,15.65
2023-04-18T18:31:52.132Z,15.53
2023-04-18T18:34:55.673Z,15.46
2023-04-18T18:37:58.497Z,15.45
2023-04-18T18:41:03.623Z,15.44
2023-04-18T18:44:08.121Z,15.45
2023-04-18T18:47:10.891Z,15.48
2023-04-18T18:50:13.731Z,15.43
2023-04-18T18:53:19.289Z,15.42
2023-04-18T18:56:22.194Z,15.37
2023-04-18T18:59:24.754Z,15.51
2023-04-18T19:02:28.249Z,15.78
2023-04-18T19:05:30.991Z,15.63
2023-04-18T19:08:35.475Z,15.58
2023-04-18T19:11:38.189Z,15.68
2023-04-18T19:14:42.351Z,15.57
2023-04-18T19:17:45.093Z,15.61
2023-04-18T19:20:47.916Z,15.76
2023-04-18T19:23:51.021Z,15.71
2023-04-18T19:26:53.873Z,15.61
2023-04-18T19:29:56.278Z,15.55
2023-04-18T19:33:01.310Z,15.58
2023-04-18T19:36:04.752Z,15.41
2023-04-18T19:39:09.132Z,15.53
2023-04-18T19:42:11.924Z,15.55
2023-04-18T19:45:15.306Z,15.41
2023-04-18T19:48:18.780Z,15.43
2023-04-18T19:51:22.242Z,15.44
2023-04-18T19:54:25.740Z,15.54
2023-04-18T19:57:29.935Z,15.51
2023-04-18T20:00:34.414Z,15.42
2023-04-18T20:03:37.426Z,15.49
2023-04-18T20:06:41.191Z,15.49
2023-04-18T20:09:44.611Z,15.44
2023-04-18T20:12:49.820Z,15.36
2023-04-18T20:15:53.446Z,15.35
2023-04-18T20:18:56.718Z,15.32
2023-04-18T20:21:59.577Z,15.37
2023-04-18T20:25:02.346Z,15.32
2023-04-18T20:28:08.086Z,15.26
2023-04-18T20:31:12.695Z,15.28
2023-04-18T20:34:16.104Z,15.29
2023-04-18T20:37:24.679Z,15.16
2023-04-18T20:40:28.421Z,14.85
2023-04-18T20:43:31.428Z,14.60
2023-04-18T20:46:34.664Z,14.68
2023-04-18T20:49:38.332Z,14.68
2023-04-18T20:52:43.684Z,14.65
2023-04-18T20:55:48.108Z,14.81
2023-04-18T20:58:53.369Z,14.83
2023-04-18T21:01:56.252Z,14.85
2023-04-18T21:04:59.974Z,14.93
2023-04-18T21:08:02.664Z,14.96
2023-04-18T21:11:09.180Z,14.96
2023-04-18T21:14:12.842Z,15.04
2023-04-18T21:17:17.902Z,15.01
2023-04-18T21:20:20.630Z,14.99
2023-04-18T21:23:23.909Z,14.99
2023-04-18T21:26:27.003Z,14.99
2023-04-18T21:29:30.406Z,14.86
2023-04-18T21:32:33.301Z,14.73
2023-04-18T21:35:35.970Z,14.61
2023-04-18T21:38:38.689Z,14.59
2023-04-18T21:41:41.855Z,14.60
2023-04-18T21:44:44.671Z,14.52
2023-04-18T21:47:47.492Z,14.50
2023-04-18T21:50:56.939Z,14.56
2023-04-18T21:53:59.891Z,14.62
2023-04-18T21:57:02.903Z,14.56
2023-04-18T22:00:08.411Z,14.55
2023-04-18T22:03:12.761Z,14.47
2023-04-18T22:06:15.786Z,14.39
2023-04-18T22:09:19.575Z,14.43
2023-04-18T22:12:22.399Z,14.40
2023-04-18T22:15:27.174Z,14.34
2023-04-18T22:18:33.898Z,14.33
2023-04-18T22:21:36.723Z,14.30
2023-04-18T22:24:39.579Z,14.24
2023-04-18T22:27:43.292Z,14.28
2023-04-18T22:30:46.125Z,14.31
2023-04-18T22:33:48.917Z,14.24
2023-04-18T22:36:51.501Z,14.26
2023-04-18T22:39:54.676Z,14.36
2023-04-18T22:42:57.547Z,14.39
2023-04-18T22:46:00.602Z,14.53
2023-04-18T22:49:06.932Z,14.47
2023-04-18T22:52:10.082Z,14.42
2023-04-18T22:55:14.799Z,14.32
2023-04-18T22:58:21.886Z,14.35
2023-04-18T23:01:25.391Z,14.26
2023-04-18T23:04:32.888Z,14.31
2023-04-18T23:07:37.620Z,14.25
2023-04-18T23:10:41.337Z,14.20
2023-04-18T23:13:45.646Z,14.17
2023-04-18T23:16:48.922Z,14.17
2023-04-18T23:19:51.553Z,14.19
2023-04-18T23:22:55.561Z,14.14
2023-04-18T23:25:59.675Z,14.12
2023-04-18T23:29:02.337Z,14.02
2023-04-18T23:32:05.405Z,14.05
2023-04-18T23:35:08.132Z,14.00
2023-04-18T23:38:11.070Z,14.01
2023-04-18T23:41:13.942Z,13.96
2023-04-18T23:44:16.739Z,13.86
2023-04-18T23:47:19.366Z,13.96
2023-04-18T23:50:21.848Z,13.88
2023-04-18T23:53:25.225Z,13.87
2023-04-18T23:56:28.809Z,13.91
2023-04-18T23:59:32.779Z,14.03
